Weather at Bauerfield International Airport

Public forecast

Using degrees Celsius for public forecast. Weather courtesy of forecast.io.

Current aviation weather report (METAR) for Bauerfield International Airport

Retrieved 2021/09/21 15:00 UTC (2 hours ago):

NVVV 211500Z 00000KT 9999 FEW020 19/18 Q1011

Aviation forecast (TAF) for Bauerfield International Airport

Retrieved 2021/09/21 12:00 UTC (5 hours ago):

TAF NVVV 211000Z 2112/2212 VRB02KT 9999 SCT020